createdAt,value
2022-08-26T00:00:31.068Z,23.70
2022-08-26T00:01:13.436Z,23.20
2022-08-26T00:01:56.243Z,23.50
2022-08-26T00:02:38.113Z,23.40
2022-08-26T00:03:20.376Z,23.30
2022-08-26T00:04:02.515Z,23.50
2022-08-26T00:04:44.282Z,23.30
2022-08-26T00:05:26.539Z,23.50
2022-08-26T00:06:09.014Z,23.40
2022-08-26T00:06:55.830Z,23.50
2022-08-26T00:07:37.755Z,23.30
2022-08-26T00:08:21.203Z,23.40
2022-08-26T00:09:04.100Z,23.40
2022-08-26T00:09:50.011Z,23.20
2022-08-26T00:10:32.014Z,23.40
2022-08-26T00:11:14.470Z,23.30
2022-08-26T00:11:56.463Z,23.30
2022-08-26T00:12:40.553Z,23.40
2022-08-26T00:13:23.081Z,23.30
2022-08-26T00:14:05.124Z,23.30
2022-08-26T00:14:46.813Z,23.30
2022-08-26T00:15:28.597Z,23.30
2022-08-26T00:16:11.712Z,23.50
2022-08-26T00:16:53.681Z,23.20
2022-08-26T00:17:37.013Z,23.20
2022-08-26T00:18:22.821Z,23.20
2022-08-26T00:19:04.778Z,23.40
2022-08-26T00:19:47.326Z,23.20
2022-08-26T00:20:33.622Z,23.10
2022-08-26T00:21:15.705Z,23.10
2022-08-26T00:21:57.394Z,23.10
2022-08-26T00:22:39.142Z,23.20
2022-08-26T00:23:24.197Z,23.30
2022-08-26T00:24:06.268Z,23.20
2022-08-26T00:24:48.173Z,23.20
2022-08-26T00:25:30.396Z,23.40
2022-08-26T00:26:13.494Z,23.40
2022-08-26T00:26:55.172Z,23.30
2022-08-26T00:27:37.011Z,23.00
2022-08-26T00:28:20.875Z,23.30
2022-08-26T00:29:03.981Z,23.20
2022-08-26T00:29:46.881Z,23.20
2022-08-26T00:30:30.536Z,23.20
2022-08-26T00:31:12.774Z,23.20
2022-08-26T00:31:54.686Z,23.30
2022-08-26T00:32:37.560Z,23.10
2022-08-26T00:33:22.949Z,23.30
2022-08-26T00:34:04.888Z,23.30
2022-08-26T00:34:47.025Z,23.20
2022-08-26T00:35:30.478Z,23.20
2022-08-26T00:36:20.257Z,23.20
2022-08-26T00:37:02.352Z,23.30
2022-08-26T00:37:45.633Z,23.10
2022-08-26T00:38:28.631Z,23.20
2022-08-26T00:39:11.601Z,23.00
2022-08-26T00:39:53.496Z,23.20
2022-08-26T00:40:38.880Z,23.20
2022-08-26T00:41:20.650Z,23.00
2022-08-26T00:42:02.409Z,23.10
2022-08-26T00:42:46.054Z,23.30
2022-08-26T00:43:46.454Z,23.10
2022-08-26T00:44:29.950Z,23.00
2022-08-26T00:45:14.570Z,23.00
2022-08-26T00:46:29.141Z,22.90
2022-08-26T00:47:40.908Z,23.00
2022-08-26T00:48:27.805Z,23.10
2022-08-26T00:49:17.998Z,23.10
2022-08-26T00:50:02.440Z,23.00
2022-08-26T00:50:50.902Z,23.10
2022-08-26T00:51:34.604Z,23.00
2022-08-26T00:52:21.117Z,22.90
2022-08-26T00:53:23.832Z,23.10
2022-08-26T00:54:10.688Z,23.30
2022-08-26T00:55:27.443Z,23.00
2022-08-26T00:56:36.187Z,23.00
2022-08-26T00:57:19.914Z,22.80
2022-08-26T00:58:02.980Z,23.00
2022-08-26T00:58:47.998Z,22.90
2022-08-26T00:59:32.766Z,23.00
2022-08-26T01:00:21.343Z,23.00
2022-08-26T01:01:03.413Z,22.80
2022-08-26T01:01:45.905Z,22.80
2022-08-26T01:02:28.893Z,22.90
2022-08-26T01:03:12.858Z,22.90
2022-08-26T01:03:56.295Z,22.70
2022-08-26T01:04:39.750Z,22.80
2022-08-26T01:05:21.571Z,22.60
2022-08-26T01:06:03.942Z,23.00
2022-08-26T01:06:48.010Z,22.90
2022-08-26T01:07:31.254Z,23.10
2022-08-26T01:08:13.190Z,22.90
2022-08-26T01:08:54.952Z,22.90
2022-08-26T01:09:38.247Z,22.70
2022-08-26T01:10:25.844Z,22.90
2022-08-26T01:11:09.214Z,22.60
2022-08-26T01:11:55.236Z,22.90
2022-08-26T01:12:42.406Z,22.60
2022-08-26T01:13:24.828Z,22.90
2022-08-26T01:14:07.565Z,22.70
2022-08-26T01:14:50.086Z,22.80
2022-08-26T01:15:40.062Z,23.00
2022-08-26T01:16:26.996Z,22.50
2022-08-26T01:17:09.505Z,22.70
2022-08-26T01:17:51.628Z,22.60
2022-08-26T01:18:35.884Z,22.90
2022-08-26T01:19:32.987Z,22.60
2022-08-26T01:20:29.615Z,22.80
2022-08-26T01:21:35.966Z,22.60
2022-08-26T01:22:50.397Z,22.60
2022-08-26T01:23:38.273Z,22.70
2022-08-26T01:24:20.070Z,22.50
2022-08-26T01:25:03.557Z,22.70
2022-08-26T01:25:50.664Z,22.50
2022-08-26T01:26:36.693Z,22.70
2022-08-26T01:27:20.559Z,22.40
2022-08-26T01:28:08.961Z,22.60
2022-08-26T01:28:56.598Z,22.80
2022-08-26T01:29:40.874Z,22.50
2022-08-26T01:30:22.766Z,22.60
2022-08-26T01:31:07.774Z,22.40
2022-08-26T01:31:55.305Z,22.40
2022-08-26T01:32:38.973Z,22.70
2022-08-26T01:34:00.745Z,22.40
2022-08-26T01:34:42.590Z,22.80
2022-08-26T01:35:24.812Z,22.60
2022-08-26T01:36:07.586Z,22.40
2022-08-26T01:36:54.457Z,22.50
2022-08-26T01:37:39.153Z,22.50
2022-08-26T01:38:23.738Z,22.50
2022-08-26T01:39:07.208Z,22.50
2022-08-26T01:39:55.210Z,22.30
2022-08-26T01:40:39.129Z,22.30
2022-08-26T01:41:27.534Z,22.50
2022-08-26T01:42:14.599Z,22.40
2022-08-26T01:42:56.772Z,22.40
2022-08-26T01:43:39.657Z,22.40
2022-08-26T01:44:24.339Z,22.50
2022-08-26T01:45:12.275Z,22.60
2022-08-26T01:45:56.825Z,22.70
2022-08-26T01:46:38.600Z,22.60
2022-08-26T01:47:23.446Z,22.50
2022-08-26T01:48:11.513Z,22.30
2022-08-26T01:48:56.770Z,22.20
2022-08-26T01:49:40.081Z,22.50
2022-08-26T01:50:30.285Z,22.50
2022-08-26T01:51:13.923Z,22.40
2022-08-26T01:51:58.426Z,22.50
2022-08-26T01:52:43.814Z,22.60
2022-08-26T01:53:26.896Z,22.30
2022-08-26T01:54:13.764Z,22.70
2022-08-26T01:54:58.244Z,22.20
2022-08-26T01:55:46.311Z,22.40
2022-08-26T01:56:33.393Z,22.10
2022-08-26T01:57:19.964Z,22.30
2022-08-26T01:58:05.741Z,22.10
2022-08-26T01:58:59.471Z,22.30
2022-08-26T01:59:41.434Z,22.00
2022-08-26T02:00:25.360Z,22.50
2022-08-26T02:01:10.006Z,22.50
2022-08-26T02:01:53.607Z,22.20
2022-08-26T02:02:35.530Z,22.30
2022-08-26T02:03:18.781Z,22.20
2022-08-26T02:04:09.961Z,22.30
2022-08-26T02:04:58.211Z,22.40
2022-08-26T02:05:40.497Z,22.20
2022-08-26T02:06:25.345Z,22.40
2022-08-26T02:07:09.272Z,22.10
2022-08-26T02:07:51.065Z,22.40
2022-08-26T02:08:41.115Z,22.00
2022-08-26T02:09:24.454Z,22.30
2022-08-26T02:10:07.906Z,22.30
2022-08-26T02:10:50.325Z,22.10
2022-08-26T02:11:36.802Z,22.20
2022-08-26T02:12:20.273Z,22.10
2022-08-26T02:13:02.150Z,22.20
2022-08-26T02:13:50.833Z,22.10
2022-08-26T02:14:43.762Z,22.20
2022-08-26T02:15:26.454Z,22.10
2022-08-26T02:16:08.980Z,21.90
2022-08-26T02:16:53.038Z,22.20
2022-08-26T02:17:41.973Z,22.00
2022-08-26T02:18:24.779Z,22.20
2022-08-26T02:19:17.115Z,22.30
2022-08-26T02:19:59.361Z,23.10
2022-08-26T02:20:41.103Z,22.20
2022-08-26T02:21:22.877Z,22.40
2022-08-26T02:22:11.538Z,22.30
2022-08-26T02:22:53.270Z,22.30
2022-08-26T02:23:35.278Z,22.20
2022-08-26T02:24:28.581Z,22.10
2022-08-26T02:25:26.987Z,22.10
2022-08-26T02:26:16.511Z,22.30
2022-08-26T02:27:00.593Z,22.10
2022-08-26T02:27:42.368Z,21.90
2022-08-26T02:28:27.904Z,22.00
2022-08-26T02:29:22.404Z,22.10
2022-08-26T02:30:13.018Z,22.30
2022-08-26T02:30:55.639Z,22.00
2022-08-26T02:31:37.633Z,22.00
2022-08-26T02:32:19.807Z,22.10
2022-08-26T02:33:03.691Z,22.10
2022-08-26T02:33:45.443Z,21.90
2022-08-26T02:34:31.360Z,22.20
2022-08-26T02:35:20.094Z,22.10
2022-08-26T02:36:02.145Z,21.90
2022-08-26T02:36:45.262Z,21.80
2022-08-26T02:37:30.321Z,22.10
2022-08-26T02:38:12.026Z,22.10
2022-08-26T02:38:53.951Z,21.90
2022-08-26T02:39:40.082Z,22.00
2022-08-26T02:40:27.118Z,22.10
2022-08-26T02:41:10.101Z,21.90
2022-08-26T02:41:52.133Z,22.00
2022-08-26T02:42:34.335Z,21.90
2022-08-26T02:43:17.002Z,22.00
2022-08-26T02:43:59.653Z,22.00
2022-08-26T02:44:41.330Z,22.10
2022-08-26T02:45:23.865Z,22.00
2022-08-26T02:46:05.940Z,22.10
2022-08-26T02:46:48.301Z,22.00
2022-08-26T02:47:32.705Z,22.00
2022-08-26T02:48:17.187Z,21.90
2022-08-26T02:49:01.231Z,21.80
2022-08-26T02:49:44.278Z,21.80
2022-08-26T02:50:26.837Z,21.90
2022-08-26T02:51:08.535Z,21.70
2022-08-26T02:51:50.913Z,22.10
2022-08-26T02:52:33.658Z,22.10
2022-08-26T02:53:16.957Z,21.90
2022-08-26T02:54:06.472Z,21.90
2022-08-26T02:54:49.639Z,21.90
2022-08-26T02:55:32.145Z,21.70
2022-08-26T02:56:13.853Z,21.90
2022-08-26T02:56:56.270Z,22.00
2022-08-26T02:57:38.128Z,21.90
2022-08-26T02:58:20.584Z,21.90
2022-08-26T02:59:03.261Z,21.80
2022-08-26T02:59:45.638Z,21.90
2022-08-26T03:00:27.791Z,21.90
2022-08-26T03:01:21.025Z,21.80
2022-08-26T03:02:03.746Z,22.00
2022-08-26T03:02:46.426Z,21.30
2022-08-26T03:03:28.280Z,21.80
2022-08-26T03:04:12.368Z,21.90
2022-08-26T03:04:57.875Z,22.00
2022-08-26T03:05:44.542Z,21.90
2022-08-26T03:06:26.406Z,21.90
2022-08-26T03:07:08.130Z,21.90
2022-08-26T03:07:50.337Z,21.90
2022-08-26T03:08:32.000Z,21.90
2022-08-26T03:09:18.855Z,21.90
2022-08-26T03:10:00.758Z,22.10
2022-08-26T03:10:42.482Z,22.00
2022-08-26T03:11:24.817Z,21.80
2022-08-26T03:12:07.482Z,21.90
2022-08-26T03:12:49.495Z,21.90
2022-08-26T03:13:34.200Z,21.90
2022-08-26T03:14:15.975Z,21.80
2022-08-26T03:14:57.696Z,21.70
2022-08-26T03:15:40.259Z,21.70
2022-08-26T03:16:22.019Z,21.80
2022-08-26T03:17:05.889Z,21.90
2022-08-26T03:17:49.107Z,21.90
2022-08-26T03:18:32.741Z,21.70
2022-08-26T03:19:14.426Z,22.00
2022-08-26T03:19:59.346Z,21.90
2022-08-26T03:20:41.063Z,21.90
2022-08-26T03:21:22.778Z,21.80
2022-08-26T03:22:04.857Z,22.00
2022-08-26T03:22:46.630Z,22.00
2022-08-26T03:23:28.326Z,21.90
2022-08-26T03:24:11.382Z,22.00
2022-08-26T03:24:53.229Z,21.90
2022-08-26T03:25:34.909Z,21.90
2022-08-26T03:26:17.062Z,21.80
2022-08-26T03:26:58.793Z,21.80
2022-08-26T03:27:40.881Z,21.70
2022-08-26T03:28:24.795Z,22.00
2022-08-26T03:29:27.426Z,22.00
2022-08-26T03:30:34.542Z,21.70
2022-08-26T03:31:16.841Z,21.80
2022-08-26T03:32:00.153Z,21.90
2022-08-26T03:32:41.875Z,21.90
2022-08-26T03:33:25.393Z,21.80
2022-08-26T03:34:07.101Z,21.90
2022-08-26T03:34:48.887Z,21.80
2022-08-26T03:35:32.773Z,21.80
2022-08-26T03:36:15.354Z,21.70
2022-08-26T03:36:57.362Z,21.90
2022-08-26T03:37:39.762Z,21.80
2022-08-26T03:38:25.000Z,22.00
2022-08-26T03:39:07.113Z,22.10
2022-08-26T03:39:49.354Z,21.90
2022-08-26T03:40:33.717Z,22.20
2022-08-26T03:41:15.625Z,21.70
2022-08-26T03:41:58.691Z,21.80
2022-08-26T03:42:41.444Z,22.10
2022-08-26T03:43:27.531Z,21.90
2022-08-26T03:44:09.221Z,21.90
2022-08-26T03:44:51.517Z,21.90
2022-08-26T03:45:33.929Z,21.90
2022-08-26T03:46:16.364Z,22.00
2022-08-26T03:46:58.142Z,21.90
2022-08-26T03:47:41.157Z,21.80
2022-08-26T03:48:22.877Z,22.00
2022-08-26T03:49:06.048Z,21.80
2022-08-26T03:49:48.267Z,21.70
2022-08-26T03:50:31.039Z,22.10
2022-08-26T03:51:19.595Z,22.10
2022-08-26T03:52:03.056Z,21.80
2022-08-26T03:52:46.998Z,21.80
2022-08-26T03:53:28.866Z,21.90
2022-08-26T03:54:10.673Z,21.80
2022-08-26T03:54:53.129Z,22.00
2022-08-26T03:55:35.125Z,21.90
2022-08-26T03:56:16.835Z,22.00
2022-08-26T03:56:59.083Z,21.80
2022-08-26T03:57:41.297Z,21.80
2022-08-26T03:58:25.257Z,21.70
2022-08-26T03:59:07.592Z,22.00
2022-08-26T03:59:49.511Z,21.80
2022-08-26T04:00:33.669Z,22.00
2022-08-26T04:01:16.458Z,22.00
2022-08-26T04:01:58.372Z,21.80
2022-08-26T04:02:40.618Z,21.80
2022-08-26T04:03:42.627Z,21.60
2022-08-26T04:04:24.506Z,22.00
2022-08-26T04:05:06.877Z,21.90
2022-08-26T04:05:52.160Z,21.70
2022-08-26T04:06:37.253Z,21.70
2022-08-26T04:07:19.216Z,21.80
2022-08-26T04:08:00.986Z,21.80
2022-08-26T04:08:43.101Z,21.90
2022-08-26T04:09:25.594Z,21.70
2022-08-26T04:10:08.667Z,21.70
2022-08-26T04:10:51.530Z,21.80
2022-08-26T04:11:35.938Z,22.00
2022-08-26T04:12:20.951Z,21.80
2022-08-26T04:13:02.752Z,21.80
2022-08-26T04:13:47.314Z,21.80
2022-08-26T04:14:29.823Z,21.70
2022-08-26T04:15:15.147Z,21.60
2022-08-26T04:15:57.530Z,21.70
2022-08-26T04:16:39.881Z,21.90
2022-08-26T04:17:25.088Z,21.70
2022-08-26T04:18:06.895Z,21.80
2022-08-26T04:18:48.706Z,21.90
2022-08-26T04:19:32.724Z,21.90
2022-08-26T04:20:16.109Z,21.90
2022-08-26T04:20:58.110Z,21.70
2022-08-26T04:21:41.279Z,21.80
2022-08-26T04:22:24.167Z,21.80
2022-08-26T04:23:06.925Z,21.90
2022-08-26T04:23:49.653Z,21.80
2022-08-26T04:24:31.471Z,21.90
2022-08-26T04:25:13.437Z,21.60
2022-08-26T04:25:55.198Z,21.80
2022-08-26T04:26:39.509Z,21.90
2022-08-26T04:27:24.751Z,21.60
2022-08-26T04:28:07.078Z,21.80
2022-08-26T04:28:50.585Z,21.80
2022-08-26T04:29:32.665Z,22.00
2022-08-26T04:30:15.178Z,21.60
2022-08-26T04:30:58.473Z,21.80
2022-08-26T04:31:41.274Z,21.70
2022-08-26T04:32:23.414Z,21.70
2022-08-26T04:33:13.029Z,21.70
2022-08-26T04:33:56.605Z,21.80
2022-08-26T04:34:39.063Z,21.80
2022-08-26T04:35:25.691Z,21.80
2022-08-26T04:36:08.422Z,21.60
2022-08-26T04:36:51.359Z,21.80
2022-08-26T04:37:33.517Z,21.60
2022-08-26T04:38:16.159Z,21.80
2022-08-26T04:39:00.525Z,21.50
2022-08-26T04:39:42.429Z,21.80
2022-08-26T04:40:27.560Z,21.80
2022-08-26T04:41:15.236Z,21.80
2022-08-26T04:41:58.740Z,21.90
2022-08-26T04:42:40.574Z,21.70
2022-08-26T04:43:22.314Z,21.70
2022-08-26T04:44:06.375Z,21.60
2022-08-26T04:44:48.066Z,21.60
2022-08-26T04:45:29.791Z,21.90
2022-08-26T04:46:13.058Z,21.80
2022-08-26T04:46:56.578Z,21.70
2022-08-26T04:47:38.388Z,21.60
2022-08-26T04:48:20.127Z,21.60
2022-08-26T04:49:02.346Z,21.70
2022-08-26T04:49:44.069Z,21.80
2022-08-26T04:50:25.842Z,21.70
2022-08-26T04:51:09.968Z,21.80
2022-08-26T04:51:52.746Z,22.00
2022-08-26T04:52:36.212Z,21.60
2022-08-26T04:53:18.017Z,21.60
2022-08-26T04:53:59.855Z,21.70
2022-08-26T04:54:42.138Z,21.80
2022-08-26T04:55:25.207Z,21.50
2022-08-26T04:56:19.868Z,21.50
2022-08-26T04:57:02.482Z,21.60
2022-08-26T04:57:44.224Z,21.60
2022-08-26T04:58:26.130Z,21.60
2022-08-26T04:59:17.184Z,21.60
2022-08-26T05:00:00.557Z,21.60
2022-08-26T05:00:46.922Z,21.60
2022-08-26T05:01:29.913Z,21.50
2022-08-26T05:02:11.851Z,21.90
2022-08-26T05:02:53.930Z,21.70
2022-08-26T05:03:36.430Z,21.60
2022-08-26T05:04:20.128Z,21.70
2022-08-26T05:05:02.442Z,22.00
2022-08-26T05:05:45.818Z,21.90
2022-08-26T05:06:28.210Z,21.80
2022-08-26T05:07:17.705Z,21.80
2022-08-26T05:07:59.503Z,21.80
2022-08-26T05:08:41.382Z,21.90
2022-08-26T05:09:23.316Z,21.70
2022-08-26T05:10:08.714Z,21.90
2022-08-26T05:10:57.295Z,21.70
2022-08-26T05:11:39.098Z,21.70
2022-08-26T05:12:20.849Z,21.60
2022-08-26T05:13:03.655Z,21.60
2022-08-26T05:13:52.495Z,21.80
2022-08-26T05:14:34.242Z,21.60
2022-08-26T05:15:16.087Z,21.60
2022-08-26T05:16:03.292Z,21.50
2022-08-26T05:16:45.106Z,21.70
2022-08-26T05:17:29.735Z,21.70
2022-08-26T05:18:13.766Z,21.80
2022-08-26T05:18:55.472Z,21.90
2022-08-26T05:19:37.408Z,21.70
2022-08-26T05:20:26.213Z,21.70
2022-08-26T05:21:08.204Z,21.90
2022-08-26T05:21:50.190Z,21.70
2022-08-26T05:22:32.019Z,21.80
2022-08-26T05:23:14.760Z,22.00
2022-08-26T05:23:57.098Z,21.70
2022-08-26T05:24:38.861Z,21.70
2022-08-26T05:25:21.278Z,21.80
2022-08-26T05:26:08.027Z,24.10
2022-08-26T05:26:49.869Z,21.90
2022-08-26T05:27:31.577Z,21.70
2022-08-26T05:28:17.327Z,21.70
2022-08-26T05:28:59.546Z,21.80
2022-08-26T05:29:42.030Z,21.70
2022-08-26T05:30:24.182Z,21.80
2022-08-26T05:31:16.396Z,21.90
2022-08-26T05:32:00.695Z,21.80
2022-08-26T05:32:42.422Z,22.00
2022-08-26T05:33:24.584Z,21.50
2022-08-26T05:34:07.018Z,21.70
2022-08-26T05:34:55.305Z,21.90
2022-08-26T05:35:38.260Z,21.90
2022-08-26T05:36:22.478Z,22.20
2022-08-26T05:37:05.426Z,21.80
2022-08-26T05:37:47.133Z,21.60
2022-08-26T05:38:30.291Z,21.80
2022-08-26T05:39:12.702Z,21.80
2022-08-26T05:39:54.637Z,21.80
2022-08-26T05:40:40.982Z,21.50
2022-08-26T05:41:36.133Z,21.80
2022-08-26T05:42:19.783Z,21.60
2022-08-26T05:43:02.019Z,21.70
2022-08-26T05:43:44.078Z,21.70
2022-08-26T05:44:25.852Z,21.60
2022-08-26T05:45:08.476Z,21.60
2022-08-26T05:45:50.697Z,21.70
2022-08-26T05:46:34.567Z,21.50
2022-08-26T05:47:16.408Z,21.80
2022-08-26T05:47:58.783Z,21.80
2022-08-26T05:48:41.337Z,21.60
2022-08-26T05:49:26.482Z,21.70
2022-08-26T05:50:08.774Z,21.70
2022-08-26T05:50:52.174Z,21.60
2022-08-26T05:51:34.942Z,21.60
2022-08-26T05:52:17.262Z,21.90
2022-08-26T05:52:59.062Z,21.80
2022-08-26T05:53:43.906Z,21.80
2022-08-26T05:54:39.169Z,21.90
2022-08-26T05:55:21.253Z,21.70
2022-08-26T05:56:05.153Z,21.90
2022-08-26T05:56:46.893Z,21.70
2022-08-26T05:57:29.691Z,21.70
2022-08-26T05:58:12.446Z,21.70
2022-08-26T05:58:55.628Z,21.80
2022-08-26T05:59:37.707Z,22.00
2022-08-26T06:00:21.918Z,21.60
2022-08-26T06:01:05.794Z,21.90
2022-08-26T06:01:47.575Z,21.80
2022-08-26T06:02:29.419Z,22.00
2022-08-26T06:03:11.479Z,21.90
2022-08-26T06:03:57.572Z,22.00
2022-08-26T06:04:41.542Z,21.80
2022-08-26T06:05:24.397Z,22.00
2022-08-26T06:06:09.772Z,21.90
2022-08-26T06:06:52.411Z,22.00
2022-08-26T06:07:54.075Z,21.80
2022-08-26T06:08:37.181Z,21.90
2022-08-26T06:09:18.927Z,21.90
2022-08-26T06:10:28.329Z,22.00
2022-08-26T06:11:05.716Z,21.90
2022-08-26T06:11:47.402Z,21.90
2022-08-26T06:12:29.290Z,21.80
2022-08-26T06:13:12.431Z,21.90
2022-08-26T06:14:00.061Z,21.80
2022-08-26T06:14:44.379Z,22.00
2022-08-26T06:15:26.257Z,22.00
2022-08-26T06:16:12.033Z,22.00
2022-08-26T06:16:54.359Z,22.00
2022-08-26T06:17:36.062Z,22.10
2022-08-26T06:18:21.159Z,22.10
2022-08-26T06:19:10.900Z,22.10
2022-08-26T06:19:53.089Z,21.80
2022-08-26T06:20:36.616Z,21.90
2022-08-26T06:21:26.262Z,21.90
2022-08-26T06:22:28.077Z,21.80
2022-08-26T06:23:33.421Z,21.90
2022-08-26T06:24:33.907Z,21.70
2022-08-26T06:25:38.977Z,22.00
2022-08-26T06:26:20.757Z,22.10
2022-08-26T06:27:08.233Z,21.90
2022-08-26T06:27:50.906Z,21.90
2022-08-26T06:28:33.293Z,22.20
2022-08-26T06:29:16.388Z,22.00
2022-08-26T06:30:06.749Z,22.10
2022-08-26T06:30:48.818Z,22.10
2022-08-26T06:31:33.501Z,22.00
2022-08-26T06:32:16.273Z,22.00
2022-08-26T06:32:58.196Z,22.20
2022-08-26T06:33:40.746Z,21.90
2022-08-26T06:34:22.855Z,22.00
2022-08-26T06:35:11.880Z,22.30
2022-08-26T06:35:54.462Z,22.30
2022-08-26T06:36:36.357Z,22.10
2022-08-26T06:37:19.577Z,22.00
2022-08-26T06:38:02.730Z,22.10
2022-08-26T06:38:47.065Z,22.30
2022-08-26T06:39:30.889Z,21.90
2022-08-26T06:40:13.123Z,21.80
2022-08-26T06:40:55.153Z,21.80
2022-08-26T06:41:43.159Z,21.60
2022-08-26T06:42:25.223Z,22.10
2022-08-26T06:43:07.111Z,21.80
2022-08-26T06:43:50.147Z,21.90
2022-08-26T06:44:32.400Z,22.10
2022-08-26T06:45:14.278Z,22.00
2022-08-26T06:46:08.902Z,22.00
2022-08-26T06:46:51.459Z,21.70
2022-08-26T06:47:33.707Z,21.90
2022-08-26T06:48:18.483Z,21.90
2022-08-26T06:49:00.604Z,21.80
2022-08-26T06:49:42.373Z,21.80
2022-08-26T06:50:26.203Z,21.80
2022-08-26T06:51:14.301Z,21.80
2022-08-26T06:51:59.716Z,21.70
2022-08-26T06:52:42.526Z,21.90
2022-08-26T06:53:24.373Z,21.80
2022-08-26T06:54:09.894Z,22.10
2022-08-26T06:54:51.778Z,22.00
2022-08-26T06:55:40.804Z,22.10
2022-08-26T06:56:24.876Z,21.80
2022-08-26T06:57:06.635Z,21.80
2022-08-26T06:57:48.822Z,21.90
2022-08-26T06:58:31.352Z,22.10
2022-08-26T06:59:15.292Z,22.20
2022-08-26T06:59:57.289Z,22.00
2022-08-26T07:00:39.929Z,21.80
2022-08-26T07:01:31.955Z,22.30
2022-08-26T07:02:14.653Z,22.00
2022-08-26T07:02:56.605Z,22.00
2022-08-26T07:03:39.709Z,22.10
2022-08-26T07:04:23.225Z,22.00
2022-08-26T07:05:06.421Z,22.00
2022-08-26T07:05:49.570Z,22.10
2022-08-26T07:06:40.591Z,22.00
2022-08-26T07:07:22.278Z,22.20
2022-08-26T07:08:05.540Z,22.40
2022-08-26T07:08:52.313Z,22.20
2022-08-26T07:09:35.361Z,22.40
2022-08-26T07:10:18.939Z,22.40
2022-08-26T07:11:05.854Z,22.20
2022-08-26T07:11:48.162Z,22.20
2022-08-26T07:12:30.986Z,22.20
2022-08-26T07:13:12.724Z,22.20
2022-08-26T07:13:54.934Z,22.20
2022-08-26T07:14:36.815Z,22.00
2022-08-26T07:15:18.712Z,22.10
2022-08-26T07:16:08.123Z,22.10
2022-08-26T07:16:51.670Z,22.10
2022-08-26T07:17:33.368Z,22.20
2022-08-26T07:18:17.129Z,22.00
2022-08-26T07:18:59.926Z,22.10
2022-08-26T07:19:46.357Z,22.00
2022-08-26T07:20:28.122Z,22.10
2022-08-26T07:21:13.464Z,22.00
2022-08-26T07:21:56.131Z,22.00
2022-08-26T07:22:38.551Z,22.00
2022-08-26T07:23:20.865Z,21.90
2022-08-26T07:24:04.525Z,21.90
2022-08-26T07:24:46.357Z,22.10
2022-08-26T07:25:28.106Z,21.90
2022-08-26T07:26:16.138Z,22.00
2022-08-26T07:27:02.713Z,22.00
2022-08-26T07:27:44.763Z,22.00
2022-08-26T07:28:26.518Z,22.10
2022-08-26T07:29:08.742Z,22.10
2022-08-26T07:29:50.642Z,22.00
2022-08-26T07:30:32.815Z,22.10
2022-08-26T07:31:17.040Z,22.30
2022-08-26T07:31:58.913Z,22.00
2022-08-26T07:32:41.933Z,22.10
2022-08-26T07:33:23.852Z,22.10
2022-08-26T07:34:07.409Z,22.00
2022-08-26T07:34:49.226Z,21.90
2022-08-26T07:35:30.974Z,22.00
2022-08-26T07:36:14.758Z,22.00
2022-08-26T07:36:57.001Z,22.00
2022-08-26T07:37:39.217Z,22.00
2022-08-26T07:38:21.146Z,22.10
2022-08-26T07:39:03.073Z,22.10
2022-08-26T07:39:45.139Z,22.30
2022-08-26T07:40:27.038Z,22.20
2022-08-26T07:41:08.931Z,22.40
2022-08-26T07:41:52.104Z,22.10
2022-08-26T07:42:34.414Z,22.10
2022-08-26T07:43:16.625Z,22.10
2022-08-26T07:43:59.321Z,22.20
2022-08-26T07:44:42.151Z,22.30
2022-08-26T07:45:24.282Z,22.10
2022-08-26T07:46:07.192Z,22.00
2022-08-26T07:46:52.269Z,22.20
2022-08-26T07:47:35.039Z,22.20
2022-08-26T07:48:17.914Z,22.10
2022-08-26T07:49:03.301Z,22.20
2022-08-26T07:49:45.130Z,22.00
2022-08-26T07:50:49.268Z,22.20
2022-08-26T07:51:28.677Z,22.40
2022-08-26T07:52:10.429Z,22.10
2022-08-26T07:52:54.069Z,22.30
2022-08-26T07:53:36.441Z,22.00
2022-08-26T07:54:18.710Z,22.30
2022-08-26T07:55:02.454Z,22.30
2022-08-26T07:55:46.997Z,22.10
2022-08-26T07:56:29.348Z,22.30
2022-08-26T07:57:11.163Z,22.00
2022-08-26T07:57:52.928Z,22.30
2022-08-26T07:58:34.792Z,22.00
2022-08-26T07:59:17.958Z,22.20
2022-08-26T08:00:00.371Z,22.00
2022-08-26T08:00:42.320Z,22.10
2022-08-26T08:01:26.056Z,22.40
2022-08-26T08:02:08.344Z,22.40
2022-08-26T08:02:53.049Z,22.20
2022-08-26T08:03:38.668Z,22.10
2022-08-26T08:04:26.126Z,22.20
2022-08-26T08:05:08.424Z,22.30
2022-08-26T08:05:50.215Z,22.40
2022-08-26T08:06:32.447Z,22.10
2022-08-26T08:07:14.215Z,22.30
2022-08-26T08:08:26.825Z,22.10
2022-08-26T08:08:57.973Z,22.10
2022-08-26T08:09:40.759Z,22.10
2022-08-26T08:10:25.365Z,22.30
2022-08-26T08:11:09.977Z,22.30
2022-08-26T08:11:52.960Z,22.20
2022-08-26T08:12:34.751Z,22.30
2022-08-26T08:13:18.216Z,22.00
2022-08-26T08:14:01.584Z,22.20
2022-08-26T08:14:45.390Z,22.00
2022-08-26T08:15:29.837Z,22.10
2022-08-26T08:16:12.452Z,22.10
2022-08-26T08:16:54.917Z,21.90
2022-08-26T08:17:37.022Z,22.10
2022-08-26T08:18:20.468Z,22.10
2022-08-26T08:19:02.578Z,22.00
2022-08-26T08:19:45.521Z,22.10
2022-08-26T08:20:28.349Z,22.10
2022-08-26T08:21:21.833Z,22.00
2022-08-26T08:22:11.363Z,22.20
2022-08-26T08:23:01.063Z,22.20
2022-08-26T08:23:43.209Z,21.90
2022-08-26T08:24:24.921Z,22.10
2022-08-26T08:25:10.347Z,21.90
2022-08-26T08:26:04.302Z,22.10
2022-08-26T08:26:46.051Z,22.10
2022-08-26T08:27:27.849Z,22.10
2022-08-26T08:28:09.868Z,22.10
2022-08-26T08:28:56.748Z,21.90
2022-08-26T08:29:39.696Z,21.90
2022-08-26T08:30:23.320Z,22.20
2022-08-26T08:31:05.933Z,22.10
2022-08-26T08:31:57.944Z,22.10
2022-08-26T08:32:40.605Z,22.00
2022-08-26T08:33:22.634Z,22.00
2022-08-26T08:34:04.390Z,21.90
2022-08-26T08:34:46.192Z,21.90
2022-08-26T08:35:27.944Z,22.00
2022-08-26T08:36:18.588Z,22.20
2022-08-26T08:37:02.600Z,22.00
2022-08-26T08:37:45.517Z,22.00
2022-08-26T08:38:28.063Z,22.10
2022-08-26T08:39:10.123Z,22.10
2022-08-26T08:39:51.947Z,21.90
2022-08-26T08:40:34.167Z,21.90
2022-08-26T08:41:47.690Z,21.80
2022-08-26T08:43:02.008Z,21.90
2022-08-26T08:43:47.333Z,22.00
2022-08-26T08:44:29.136Z,22.10
2022-08-26T08:45:17.734Z,22.10
2022-08-26T08:46:10.264Z,22.00
2022-08-26T08:46:56.121Z,21.90
2022-08-26T08:47:47.417Z,22.20
2022-08-26T08:48:32.163Z,22.10
2022-08-26T08:49:14.898Z,22.10
2022-08-26T08:50:02.619Z,22.10
2022-08-26T08:50:50.644Z,22.10
2022-08-26T08:51:50.929Z,22.30
2022-08-26T08:52:35.958Z,21.90
2022-08-26T08:53:34.460Z,22.00
2022-08-26T08:54:16.951Z,22.30
2022-08-26T08:54:58.729Z,22.10
2022-08-26T08:56:02.127Z,22.10
2022-08-26T08:56:46.399Z,22.10
2022-08-26T08:57:54.842Z,22.10
2022-08-26T08:58:57.296Z,22.20
2022-08-26T08:59:52.025Z,22.00
2022-08-26T09:00:45.339Z,22.00
2022-08-26T09:01:36.159Z,21.80
2022-08-26T09:02:40.123Z,22.10
2022-08-26T09:03:42.223Z,22.00
2022-08-26T09:04:41.649Z,21.90
2022-08-26T09:05:28.402Z,21.90
2022-08-26T09:06:17.450Z,21.90
2022-08-26T09:07:01.891Z,22.10
2022-08-26T09:07:48.838Z,22.20
2022-08-26T09:08:35.695Z,22.00
2022-08-26T09:09:27.798Z,21.80
2022-08-26T09:10:27.139Z,22.10
2022-08-26T09:11:08.954Z,22.10
2022-08-26T09:11:52.367Z,21.90
2022-08-26T09:12:34.720Z,22.00
2022-08-26T09:13:25.386Z,22.20
2022-08-26T09:14:09.627Z,22.10
2022-08-26T09:14:56.614Z,22.10
2022-08-26T09:16:08.237Z,22.00
2022-08-26T09:17:15.672Z,22.20
2022-08-26T09:18:22.630Z,22.20
2022-08-26T09:19:27.062Z,22.10
2022-08-26T09:20:41.021Z,22.20
2022-08-26T09:21:25.133Z,22.00
2022-08-26T09:22:09.735Z,21.90
2022-08-26T09:22:51.756Z,22.10
2022-08-26T09:23:36.958Z,22.30
2022-08-26T09:24:19.509Z,22.10
2022-08-26T09:25:11.080Z,22.20
2022-08-26T09:26:48.011Z,22.30
2022-08-26T09:27:37.674Z,22.20
2022-08-26T09:28:22.678Z,22.20
2022-08-26T09:29:27.863Z,22.40
2022-08-26T09:30:14.317Z,22.40
2022-08-26T09:31:15.193Z,22.10
2022-08-26T09:32:30.148Z,22.30
2022-08-26T09:33:17.409Z,22.30
2022-08-26T09:34:22.035Z,22.10
2022-08-26T09:35:30.885Z,22.20
2022-08-26T09:36:24.766Z,22.20
2022-08-26T09:37:07.957Z,22.10
2022-08-26T09:38:38.297Z,22.20
2022-08-26T09:39:24.672Z,22.20
2022-08-26T09:40:18.877Z,22.30
2022-08-26T09:41:06.509Z,22.30
2022-08-26T09:42:19.357Z,22.10
2022-08-26T09:43:15.991Z,22.00